CFG9665 GCLP-GCFV
Flight info
| Callsign | CFG9665 |
|---|---|
| Flight time | 0h 23m |
| Altitude | 10000 |
| Route | KOPUD |
| Aircraft | A21N/M-SDE2E3FGHIRWXY/LB1 |
Departure
| Time | 2026-05-04 13:35 |
|---|---|
| Airport | Gran Canaria Airport (GCLP) |
Arrival
| Time | 2026-05-04 13:58 |
|---|---|
| Airport | Fuerteventura Airport (GCFV) |
| Time | Latitude | Longitude | Altitude | Speed | Heading |
|---|---|---|---|---|---|
| 2026-05-04 13:07 | 27.93855 | -15.38813 | 90 ft | 0 kts | 291° |
| 2026-05-04 13:25 | 27.93826 | -15.38751 | 89 ft | 4 kts | 194° |
| 2026-05-04 13:25 | 27.93822 | -15.38752 | 89 ft | 0 kts | 194° |
| 2026-05-04 13:28 | 27.93820 | -15.38753 | 89 ft | 0 kts | 193° |
| 2026-05-04 13:28 | 27.93806 | -15.38757 | 90 ft | 4 kts | 193° |
| 2026-05-04 13:28 | 27.93766 | -15.38766 | 90 ft | 8 kts | 193° |
| 2026-05-04 13:28 | 27.93720 | -15.38787 | 90 ft | 3 kts | 188° |
| 2026-05-04 13:29 | 27.93692 | -15.38795 | 91 ft | 6 kts | 197° |
| 2026-05-04 13:29 | 27.93646 | -15.38814 | 91 ft | 9 kts | 200° |
| 2026-05-04 13:29 | 27.93579 | -15.38843 | 92 ft | 12 kts | 201° |
| 2026-05-04 13:29 | 27.93492 | -15.38874 | 88 ft | 13 kts | 182° |
| 2026-05-04 13:30 | 27.93429 | -15.38813 | 87 ft | 9 kts | 110° |
| 2026-05-04 13:30 | 27.93376 | -15.38770 | 81 ft | 12 kts | 192° |
| 2026-05-04 13:30 | 27.93291 | -15.38808 | 85 ft | 15 kts | 203° |
| 2026-05-04 13:30 | 27.93183 | -15.38859 | 83 ft | 18 kts | 203° |
| 2026-05-04 13:31 | 27.93057 | -15.38917 | 87 ft | 21 kts | 201° |
| 2026-05-04 13:31 | 27.92911 | -15.38980 | 89 ft | 24 kts | 202° |
| 2026-05-04 13:31 | 27.92747 | -15.39053 | 92 ft | 27 kts | 201° |
| 2026-05-04 13:31 | 27.92566 | -15.39133 | 98 ft | 29 kts | 201° |
| 2026-05-04 13:32 | 27.92365 | -15.39222 | 103 ft | 32 kts | 202° |
| 2026-05-04 13:32 | 27.92156 | -15.39316 | 102 ft | 33 kts | 201° |
| 2026-05-04 13:32 | 27.91980 | -15.39392 | 100 ft | 17 kts | 196° |
| 2026-05-04 13:32 | 27.91905 | -15.39339 | 96 ft | 10 kts | 93° |
| 2026-05-04 13:33 | 27.91906 | -15.39259 | 95 ft | 11 kts | 119° |
| 2026-05-04 13:33 | 27.91878 | -15.39175 | 90 ft | 12 kts | 109° |
| 2026-05-04 13:33 | 27.91850 | -15.39081 | 88 ft | 13 kts | 103° |
| 2026-05-04 13:33 | 27.91894 | -15.39003 | 81 ft | 14 kts | 23° |
| 2026-05-04 13:34 | 27.91988 | -15.38960 | 72 ft | 16 kts | 21° |
| 2026-05-04 13:34 | 27.92277 | -15.38833 | 68 ft | 81 kts | 22° |
| 2026-05-04 13:34 | 27.93011 | -15.38509 | 49 ft | 141 kts | 21° |
| 2026-05-04 13:34 | 27.93983 | -15.38079 | 474 ft | 145 kts | 17° |
| 2026-05-04 13:35 | 27.94966 | -15.37639 | 945 ft | 157 kts | 27° |
| 2026-05-04 13:35 | 27.97083 | -15.36626 | 1875 ft | 179 kts | 22° |
| 2026-05-04 13:35 | 27.98281 | -15.36075 | 2419 ft | 192 kts | 23° |
| 2026-05-04 13:36 | 27.99578 | -15.35471 | 2857 ft | 212 kts | 22° |
| 2026-05-04 13:36 | 28.01009 | -15.34757 | 3080 ft | 241 kts | 32° |
| 2026-05-04 13:36 | 28.02149 | -15.33316 | 3644 ft | 256 kts | 64° |
| 2026-05-04 13:36 | 28.02590 | -15.31325 | 4417 ft | 264 kts | 82° |
| 2026-05-04 13:37 | 28.02793 | -15.29230 | 5211 ft | 271 kts | 83° |
| 2026-05-04 13:37 | 28.03003 | -15.27069 | 5916 ft | 280 kts | 83° |
| 2026-05-04 13:37 | 28.03237 | -15.24853 | 6587 ft | 289 kts | 82° |
| 2026-05-04 13:37 | 28.03404 | -15.23341 | 7044 ft | 293 kts | 82° |
| 2026-05-04 13:38 | 28.03757 | -15.20281 | 8035 ft | 298 kts | 83° |
| 2026-05-04 13:38 | 28.04035 | -15.17934 | 8751 ft | 303 kts | 82° |
| 2026-05-04 13:38 | 28.04320 | -15.15536 | 9426 ft | 310 kts | 83° |
| 2026-05-04 13:38 | 28.04612 | -15.13070 | 9941 ft | 318 kts | 83° |
| 2026-05-04 13:39 | 28.04909 | -15.10589 | 10095 ft | 320 kts | 83° |
| 2026-05-04 13:39 | 28.05207 | -15.08089 | 10125 ft | 320 kts | 83° |
| 2026-05-04 13:39 | 28.05503 | -15.05606 | 10115 ft | 321 kts | 83° |
| 2026-05-04 13:39 | 28.05802 | -15.03100 | 10102 ft | 320 kts | 83° |
| 2026-05-04 13:40 | 28.06098 | -15.00589 | 10096 ft | 320 kts | 83° |
| 2026-05-04 13:40 | 28.06394 | -14.98089 | 10097 ft | 320 kts | 83° |
| 2026-05-04 13:40 | 28.06693 | -14.95605 | 10095 ft | 320 kts | 83° |
| 2026-05-04 13:40 | 28.06987 | -14.93126 | 10096 ft | 321 kts | 83° |
| 2026-05-04 13:41 | 28.07286 | -14.90611 | 10093 ft | 321 kts | 83° |
| 2026-05-04 13:41 | 28.07583 | -14.88102 | 10093 ft | 321 kts | 83° |
| 2026-05-04 13:41 | 28.07880 | -14.85585 | 10092 ft | 321 kts | 83° |
| 2026-05-04 13:42 | 28.08472 | -14.80573 | 10088 ft | 322 kts | 83° |
| 2026-05-04 13:42 | 28.08768 | -14.78058 | 10088 ft | 321 kts | 83° |
| 2026-05-04 13:42 | 28.09064 | -14.75541 | 10088 ft | 321 kts | 83° |
| 2026-05-04 13:42 | 28.09355 | -14.73069 | 10089 ft | 321 kts | 83° |
| 2026-05-04 13:43 | 28.09649 | -14.70549 | 10089 ft | 321 kts | 83° |
| 2026-05-04 13:43 | 28.09942 | -14.68034 | 10088 ft | 321 kts | 83° |
| 2026-05-04 13:43 | 28.10235 | -14.65527 | 10088 ft | 321 kts | 83° |
| 2026-05-04 13:43 | 28.10525 | -14.63032 | 10088 ft | 322 kts | 83° |
| 2026-05-04 13:44 | 28.10816 | -14.60517 | 10088 ft | 321 kts | 83° |
| 2026-05-04 13:44 | 28.11108 | -14.57999 | 10088 ft | 321 kts | 83° |
| 2026-05-04 13:44 | 28.11397 | -14.55487 | 10087 ft | 322 kts | 83° |
| 2026-05-04 13:44 | 28.11688 | -14.52972 | 10088 ft | 322 kts | 83° |
| 2026-05-04 13:45 | 28.11979 | -14.50458 | 10086 ft | 322 kts | 83° |
| 2026-05-04 13:45 | 28.12270 | -14.47933 | 10087 ft | 322 kts | 83° |
| 2026-05-04 13:45 | 28.12555 | -14.45443 | 10085 ft | 322 kts | 83° |
| 2026-05-04 13:45 | 28.12845 | -14.42914 | 10086 ft | 322 kts | 83° |
| 2026-05-04 13:46 | 28.13131 | -14.40396 | 10090 ft | 323 kts | 83° |
| 2026-05-04 13:46 | 28.13419 | -14.37869 | 10089 ft | 323 kts | 83° |
| 2026-05-04 13:46 | 28.13708 | -14.35343 | 10090 ft | 322 kts | 83° |
| 2026-05-04 13:46 | 28.13994 | -14.32844 | 10089 ft | 322 kts | 83° |
| 2026-05-04 13:47 | 28.14285 | -14.30282 | 10041 ft | 322 kts | 83° |
| 2026-05-04 13:47 | 28.14570 | -14.27781 | 9558 ft | 323 kts | 83° |
| 2026-05-04 13:47 | 28.14854 | -14.25281 | 9151 ft | 319 kts | 83° |
| 2026-05-04 13:47 | 28.15136 | -14.22790 | 8743 ft | 316 kts | 83° |
| 2026-05-04 13:48 | 28.15410 | -14.20371 | 8314 ft | 310 kts | 82° |
| 2026-05-04 13:48 | 28.15680 | -14.17966 | 7871 ft | 304 kts | 82° |
| 2026-05-04 13:48 | 28.15943 | -14.15621 | 7459 ft | 299 kts | 82° |
| 2026-05-04 13:48 | 28.16205 | -14.13298 | 7052 ft | 296 kts | 82° |
| 2026-05-04 13:49 | 28.16658 | -14.11032 | 6637 ft | 292 kts | 63° |
| 2026-05-04 13:49 | 28.17844 | -14.09259 | 6256 ft | 283 kts | 38° |
| 2026-05-04 13:49 | 28.19396 | -14.07872 | 5912 ft | 281 kts | 35° |
| 2026-05-04 13:49 | 28.20944 | -14.06547 | 5579 ft | 280 kts | 36° |
| 2026-05-04 13:50 | 28.22488 | -14.05201 | 5234 ft | 277 kts | 36° |
| 2026-05-04 13:50 | 28.23978 | -14.03879 | 4897 ft | 274 kts | 37° |
| 2026-05-04 13:50 | 28.25157 | -14.02823 | 4590 ft | 271 kts | 37° |
| 2026-05-04 13:50 | 28.26075 | -14.01865 | 4347 ft | 270 kts | 50° |
| 2026-05-04 13:51 | 28.26822 | -13.99955 | 3976 ft | 268 kts | 81° |
| 2026-05-04 13:51 | 28.26566 | -13.97882 | 3657 ft | 268 kts | 113° |
| 2026-05-04 13:51 | 28.25582 | -13.96134 | 3343 ft | 266 kts | 122° |
| 2026-05-04 13:51 | 28.24651 | -13.94337 | 3006 ft | 262 kts | 113° |
| 2026-05-04 13:52 | 28.23544 | -13.90550 | 2921 ft | 237 kts | 93° |
| 2026-05-04 13:52 | 28.23596 | -13.88778 | 2898 ft | 214 kts | 68° |
| 2026-05-04 13:52 | 28.24382 | -13.87493 | 2911 ft | 195 kts | 34° |
| 2026-05-04 13:53 | 28.25554 | -13.86957 | 2973 ft | 175 kts | 11° |
| 2026-05-04 13:53 | 28.26690 | -13.86919 | 2946 ft | 154 kts | 356° |
| 2026-05-04 13:53 | 28.27779 | -13.86925 | 2954 ft | 157 kts | 5° |
| 2026-05-04 13:54 | 28.29948 | -13.86870 | 2827 ft | 156 kts | 4° |
| 2026-05-04 13:54 | 28.31033 | -13.86835 | 2640 ft | 155 kts | 4° |
| 2026-05-04 13:54 | 28.33212 | -13.86764 | 2229 ft | 156 kts | 4° |
| 2026-05-04 13:55 | 28.34293 | -13.86728 | 2024 ft | 155 kts | 5° |
| 2026-05-04 13:55 | 28.36398 | -13.86642 | 1652 ft | 149 kts | 6° |
| 2026-05-04 13:55 | 28.37428 | -13.86623 | 1354 ft | 147 kts | 6° |
| 2026-05-04 13:56 | 28.38450 | -13.86582 | 1285 ft | 148 kts | 4° |
| 2026-05-04 13:56 | 28.39499 | -13.86570 | 1078 ft | 150 kts | 6° |
| 2026-05-04 13:56 | 28.41533 | -13.86496 | 613 ft | 148 kts | 6° |
| 2026-05-04 13:57 | 28.42560 | -13.86452 | 390 ft | 148 kts | 6° |
| 2026-05-04 13:57 | 28.43569 | -13.86425 | 216 ft | 144 kts | 7° |
| 2026-05-04 13:58 | 28.45619 | -13.86363 | 91 ft | 12 kts | 358° |
| 2026-05-04 13:58 | 28.45659 | -13.86541 | 101 ft | 6 kts | 269° |
| 2026-05-04 13:58 | 28.45694 | -13.86583 | 103 ft | 9 kts | 317° |
| 2026-05-04 13:59 | 28.45714 | -13.86654 | 104 ft | 11 kts | 266° |
| 2026-05-04 13:59 | 28.45677 | -13.86725 | 104 ft | 13 kts | 183° |
| 2026-05-04 13:59 | 28.45507 | -13.86729 | 104 ft | 12 kts | 183° |
| 2026-05-04 14:00 | 28.45448 | -13.86732 | 104 ft | 6 kts | 190° |
| 2026-05-04 14:00 | 28.45434 | -13.86800 | 104 ft | 5 kts | 271° |
| 2026-05-04 14:00 | 28.45436 | -13.86823 | 104 ft | 0 kts | 274° |